Time;durP1;ratioP1;P1;durP2;ratioP2;P2;SDS_P1;SDS_P2;PMS_P1;PMS_P2;Temp;Humidity;BMP_temperature;BMP_pressure;BME280_temperature;BME280_humidity;BME280_pressure;Samples;Min_cycle;Max_cycle;Signal;HPM_P1;HPM_P2
2022/06/29 00:01:42;;;;;;;7.12;3.27;;;27.80;95.30;;;;;;1867531;75;21175;-81
2022/06/29 00:04:13;;;;;;;7.92;2.92;;;27.90;95.40;;;;;;1877559;75;21132;-80
2022/06/29 00:06:44;;;;;;;5.50;2.92;;;27.90;95.30;;;;;;1851016;75;21144;-81
2022/06/29 00:09:14;;;;;;;6.33;2.77;;;27.90;95.30;;;;;;1854978;75;21183;-81
2022/06/29 00:11:45;;;;;;;7.70;3.10;;;27.90;95.30;;;;;;1863226;75;21079;-81
2022/06/29 00:14:16;;;;;;;7.92;3.20;;;27.90;95.20;;;;;;1864520;75;21141;-81
2022/06/29 00:16:47;;;;;;;6.22;3.02;;;27.90;95.00;;;;;;1857973;77;21147;-82
2022/06/29 00:19:19;;;;;;;6.92;3.00;;;27.90;94.90;;;;;;1864253;75;21084;-82
2022/06/29 00:21:50;;;;;;;6.62;2.95;;;28.00;95.00;;;;;;1860236;75;21140;-83
2022/06/29 00:24:21;;;;;;;6.42;3.15;;;28.00;94.60;;;;;;1858633;75;21198;-82
2022/06/29 00:26:52;;;;;;;4.30;2.75;;;28.00;94.80;;;;;;1866134;75;21108;-82
2022/06/29 00:29:23;;;;;;;5.78;2.62;;;28.10;94.70;;;;;;1855578;75;21206;-81
2022/06/29 00:31:54;;;;;;;6.00;3.40;;;28.10;94.50;;;;;;1878249;75;21093;-82
2022/06/29 00:34:25;;;;;;;6.00;3.27;;;28.10;94.50;;;;;;1858083;75;21119;-82
2022/06/29 00:36:56;;;;;;;4.95;2.77;;;28.20;94.50;;;;;;1856463;75;21685;-82
2022/06/29 00:39:27;;;;;;;4.22;2.67;;;28.20;94.40;;;;;;1858485;75;21220;-82
2022/06/29 00:42:00;;;;;;;5.50;2.98;;;28.30;94.00;;;;;;1878883;75;21058;-82
2022/06/29 00:44:33;;;;;;;7.53;2.67;;;28.30;94.00;;;;;;1849878;77;21120;-81
2022/06/29 00:47:06;;;;;;;6.58;3.40;;;28.30;93.90;;;;;;1852158;75;21198;-81
2022/06/29 00:49:39;;;;;;;5.53;2.80;;;28.40;94.00;;;;;;1853158;75;21189;-84
2022/06/29 00:52:16;;;;;;;7.12;3.40;;;28.40;93.90;;;;;;1852912;77;21175;-80
2022/06/29 00:54:52;;;;;;;6.45;3.00;;;28.50;93.70;;;;;;1835191;75;21161;-79
2022/06/29 00:57:25;;;;;;;7.70;3.77;;;28.60;93.60;;;;;;1857368;75;21152;-82
2022/06/29 00:59:58;;;;;;;6.67;2.80;;;28.70;93.40;;;;;;1852704;77;21128;-82
2022/06/29 01:02:32;;;;;;;6.08;2.92;;;28.80;93.30;;;;;;1869496;75;21043;-82
2022/06/29 01:05:05;;;;;;;8.30;3.20;;;28.80;93.00;;;;;;1854985;76;21187;-82
2022/06/29 01:07:38;;;;;;;5.03;2.90;;;28.90;92.90;;;;;;1855145;75;21174;-83
2022/06/29 01:10:09;;;;;;;7.53;3.35;;;28.90;92.90;;;;;;1865769;74;21091;-82
2022/06/29 01:12:41;;;;;;;7.70;4.20;;;29.00;92.80;;;;;;1868154;74;21161;-82
2022/06/29 01:15:13;;;;;;;8.23;3.72;;;29.00;92.80;;;;;;1867538;75;21132;-80
2022/06/29 01:17:46;;;;;;;8.13;3.85;;;29.20;92.80;;;;;;1876275;75;21503;-82
2022/06/29 01:20:18;;;;;;;7.65;2.87;;;29.30;92.50;;;;;;1879995;75;21150;-83
2022/06/29 01:22:51;;;;;;;7.22;2.83;;;29.40;92.10;;;;;;1854608;77;21151;-79
2022/06/29 01:25:42;;;;;;;5.62;3.22;;;29.50;91.90;;;;;;1839791;78;21563;-82
2022/06/29 01:28:14;;;;;;;6.78;2.92;;;29.60;91.70;;;;;;1813549;79;21113;-81
2022/06/29 01:30:46;;;;;;;4.90;3.00;;;29.60;91.60;;;;;;1840185;76;21143;-81
2022/06/29 01:33:16;;;;;;;5.92;2.83;;;29.70;91.60;;;;;;1862637;77;21157;-81
2022/06/29 01:35:48;;;;;;;6.05;2.77;;;29.90;91.20;;;;;;1870941;75;21209;-82
2022/06/29 01:38:20;;;;;;;4.00;2.60;;;29.90;90.80;;;;;;1861664;75;21155;-82
2022/06/29 01:40:51;;;;;;;5.97;3.02;;;30.00;90.90;;;;;;1842663;76;21280;-82
2022/06/29 01:43:21;;;;;;;7.25;2.70;;;30.00;90.70;;;;;;1852832;77;21115;-82
2022/06/29 01:45:52;;;;;;;5.75;2.67;;;30.10;90.70;;;;;;1872152;76;21090;-82
2022/06/29 01:48:23;;;;;;;5.25;2.83;;;30.20;90.50;;;;;;1866628;74;21180;-81
2022/06/29 01:50:56;;;;;;;4.60;2.67;;;30.30;89.70;;;;;;1863126;75;21258;-82
2022/06/29 01:53:28;;;;;;;5.00;2.80;;;30.30;89.70;;;;;;1872803;76;21675;-83
2022/06/29 01:55:59;;;;;;;5.97;2.60;;;30.40;89.70;;;;;;1846203;76;21145;-82
2022/06/29 01:58:30;;;;;;;5.08;2.40;;;30.40;89.50;;;;;;1877061;76;21059;-81
2022/06/29 02:01:01;;;;;;;5.58;2.20;;;30.50;88.90;;;;;;1801929;79;21969;-81
2022/06/29 02:03:32;;;;;;;3.35;1.80;;;30.60;87.30;;;;;;1876019;76;21180;-81
2022/06/29 02:06:04;;;;;;;4.75;2.33;;;30.70;85.70;;;;;;1877377;76;21672;-81
2022/06/29 02:08:36;;;;;;;5.35;2.50;;;30.90;86.40;;;;;;1886058;76;21188;-81
2022/06/29 02:11:12;;;;;;;4.92;2.50;;;30.90;87.00;;;;;;1878569;76;21079;-85
2022/06/29 02:13:46;;;;;;;4.62;2.15;;;31.10;85.30;;;;;;1819144;77;21712;-81
2022/06/29 02:16:18;;;;;;;7.10;2.55;;;31.20;83.70;;;;;;1862635;77;21192;-86
2022/06/29 02:18:49;;;;;;;5.22;2.92;;;31.20;84.30;;;;;;1816712;78;21636;-86
2022/06/29 02:21:20;;;;;;;4.35;2.25;;;31.40;83.60;;;;;;1822480;78;21611;-86
2022/06/29 02:23:52;;;;;;;3.77;2.20;;;31.40;83.00;;;;;;1874130;76;21129;-85
2022/06/29 02:26:24;;;;;;;6.97;2.45;;;31.50;82.00;;;;;;1863559;77;21637;-88
2022/06/29 02:28:55;;;;;;;5.20;2.37;;;31.50;82.50;;;;;;1863501;77;21086;-86
2022/06/29 02:36:33;;;;;;;3.30;1.75;;;31.70;80.10;;;;;;1870582;75;21171;-85
2022/06/29 02:39:04;;;;;;;3.83;1.98;;;31.70;80.30;;;;;;1862339;75;21777;-82
2022/06/29 02:41:35;;;;;;;3.65;1.95;;;31.70;80.30;;;;;;1890077;75;21110;-81
2022/06/29 02:44:06;;;;;;;4.25;1.67;;;31.80;80.80;;;;;;1817130;78;21179;-80
2022/06/29 02:46:37;;;;;;;3.20;1.90;;;31.90;80.50;;;;;;1838834;77;21139;-81
2022/06/29 02:49:08;;;;;;;3.17;1.80;;;32.00;79.70;;;;;;1861952;77;21219;-80
2022/06/29 02:51:39;;;;;;;3.37;1.40;;;32.10;79.50;;;;;;1862554;77;21110;-81
2022/06/29 02:54:11;;;;;;;5.42;1.67;;;32.20;78.40;;;;;;1863963;77;21674;-80
2022/06/29 02:56:43;;;;;;;2.37;1.10;;;32.30;77.40;;;;;;1863529;77;21169;-80
2022/06/29 02:59:14;;;;;;;4.03;1.27;;;32.50;75.50;;;;;;1907614;75;21188;-81
2022/06/29 03:01:44;;;;;;;4.05;1.57;;;32.50;75.30;;;;;;1862883;77;21094;-81
2022/06/29 03:04:18;;;;;;;3.33;1.30;;;32.60;75.00;;;;;;1863110;77;21149;-82
2022/06/29 03:06:49;;;;;;;3.80;1.70;;;32.70;75.30;;;;;;1863699;75;21558;-82
2022/06/29 03:09:21;;;;;;;2.33;1.10;;;32.80;74.20;;;;;;1863031;77;21149;-81
2022/06/29 03:11:52;;;;;;;3.45;1.32;;;32.80;73.10;;;;;;1862769;77;21137;-81
2022/06/29 03:14:23;;;;;;;6.47;1.52;;;32.90;72.90;;;;;;1880911;74;21258;-82
2022/06/29 03:16:54;;;;;;;5.50;1.30;;;32.90;73.30;;;;;;1847130;76;21224;-82
2022/06/29 03:19:25;;;;;;;4.37;1.57;;;32.90;72.70;;;;;;1849472;77;21118;-82
2022/06/29 03:21:56;;;;;;;2.47;1.05;;;33.00;72.90;;;;;;1877861;76;21121;-82
2022/06/29 03:24:27;;;;;;;4.10;1.30;;;33.10;72.30;;;;;;1876617;74;21043;-82
2022/06/29 03:26:58;;;;;;;4.58;1.30;;;33.20;72.60;;;;;;1877807;76;21149;-83
2022/06/29 03:29:29;;;;;;;3.33;1.12;;;33.30;72.20;;;;;;1861706;76;21138;-82
2022/06/29 03:32:03;;;;;;;2.95;1.62;;;33.30;71.90;;;;;;1858853;76;21107;-81
2022/06/29 03:34:34;;;;;;;5.20;1.82;;;33.50;71.30;;;;;;1854596;76;21160;-81
2022/06/29 03:37:05;;;;;;;3.35;1.17;;;33.50;70.40;;;;;;1857936;76;21138;-81
2022/06/29 03:39:36;;;;;;;2.65;1.22;;;33.70;69.20;;;;;;1852708;76;21159;-81
2022/06/29 03:42:07;;;;;;;3.05;1.40;;;33.70;69.50;;;;;;1853642;76;21197;-81
2022/06/29 03:44:38;;;;;;;4.03;1.52;;;33.80;69.30;;;;;;1858062;76;21147;-82
2022/06/29 03:47:09;;;;;;;3.62;1.50;;;33.70;69.40;;;;;;1860594;76;21216;-83
2022/06/29 03:49:40;;;;;;;2.77;1.60;;;33.70;69.00;;;;;;1853072;76;21195;-83
2022/06/29 03:52:11;;;;;;;4.55;1.50;;;33.70;68.80;;;;;;1854936;76;21131;-83
2022/06/29 03:54:42;;;;;;;2.72;1.60;;;33.70;68.70;;;;;;1855071;76;21199;-82
2022/06/29 03:57:13;;;;;;;3.15;1.50;;;33.80;69.00;;;;;;1859561;76;21631;-83
2022/06/29 03:59:44;;;;;;;2.33;1.30;;;33.80;68.20;;;;;;1852232;76;21147;-81
2022/06/29 04:02:15;;;;;;;3.55;1.20;;;33.90;68.10;;;;;;1849488;76;21182;-81
2022/06/29 04:04:47;;;;;;;2.00;1.30;;;33.90;68.20;;;;;;1855393;76;21167;-81
2022/06/29 04:07:17;;;;;;;3.92;1.50;;;;;;;;;;1850717;77;21129;-81
2022/06/29 04:09:48;;;;;;;3.35;1.75;;;34.10;66.90;;;;;;1849141;76;21113;-80
2022/06/29 04:12:19;;;;;;;3.55;1.45;;;34.20;67.70;;;;;;1850773;76;21164;-80
2022/06/29 04:14:49;;;;;;;2.58;1.32;;;34.30;65.80;;;;;;1849085;76;21082;-81
2022/06/29 04:17:20;;;;;;;2.20;1.20;;;34.30;66.50;;;;;;1850283;77;21594;-81
2022/06/29 04:19:51;;;;;;;3.00;1.20;;;34.40;65.60;;;;;;1854844;76;22034;-81
2022/06/29 04:22:23;;;;;;;3.08;1.67;;;34.50;65.30;;;;;;1852201;76;21152;-81
2022/06/29 04:24:54;;;;;;;2.40;1.50;;;34.60;65.00;;;;;;1857249;76;21163;-81
2022/06/29 04:27:25;;;;;;;2.80;1.30;;;34.70;64.80;;;;;;1850109;76;21165;-81
2022/06/29 04:29:56;;;;;;;2.83;0.95;;;34.70;63.60;;;;;;1860173;76;21212;-81
2022/06/29 04:32:27;;;;;;;2.55;1.10;;;34.80;63.20;;;;;;1852245;76;21149;-82
2022/06/29 04:34:57;;;;;;;4.12;1.52;;;34.70;63.60;;;;;;1858600;76;21266;-82
2022/06/29 04:37:28;;;;;;;3.77;1.15;;;34.70;63.50;;;;;;1857365;76;21654;-82
2022/06/29 04:40:03;;;;;;;2.65;1.62;;;34.70;63.30;;;;;;1861329;75;21137;-81
2022/06/29 04:42:31;;;;;;;3.90;1.62;;;34.80;63.40;;;;;;1854700;76;21146;-80
2022/06/29 04:45:02;;;;;;;2.90;1.35;;;34.90;63.20;;;;;;1866324;75;21080;-81
2022/06/29 04:47:33;;;;;;;3.22;1.90;;;35.00;62.70;;;;;;1857571;75;21158;-81
2022/06/29 04:50:05;;;;;;;2.35;1.52;;;34.90;63.20;;;;;;1816917;77;21124;-82
2022/06/29 04:52:36;;;;;;;4.70;2.40;;;34.90;63.10;;;;;;1781045;79;21255;-82
2022/06/29 04:55:08;;;;;;;5.17;1.65;;;34.90;63.90;;;;;;1850346;75;21247;-81
2022/06/29 04:57:39;;;;;;;4.03;1.80;;;35.00;63.70;;;;;;1856543;75;21096;-82
2022/06/29 05:00:11;;;;;;;5.22;2.72;;;35.10;63.10;;;;;;1848233;76;21538;-82
2022/06/29 05:02:42;;;;;;;2.62;1.62;;;35.10;61.50;;;;;;1854388;76;21786;-81
2022/06/29 05:05:13;;;;;;;3.50;2.22;;;35.20;61.50;;;;;;1858675;76;21476;-82
2022/06/29 05:07:43;;;;;;;3.42;2.05;;;35.30;62.60;;;;;;1849713;75;21236;-82
2022/06/29 05:10:15;;;;;;;6.42;1.70;;;35.40;61.80;;;;;;1861228;76;21188;-83
2022/06/29 05:12:46;;;;;;;5.12;1.42;;;35.40;60.30;;;;;;1821455;77;21683;-82
2022/06/29 05:15:17;;;;;;;4.12;1.42;;;35.40;61.20;;;;;;1783056;78;21151;-83
2022/06/29 05:17:48;;;;;;;3.72;1.92;;;35.40;60.00;;;;;;1792104;78;21564;-83
2022/06/29 05:20:21;;;;;;;2.98;1.10;;;35.40;60.30;;;;;;1863952;75;21252;-83
2022/06/29 05:22:52;;;;;;;5.47;2.00;;;35.40;59.60;;;;;;1849457;75;21180;-82
2022/06/29 05:25:28;;;;;;;3.70;1.70;;;35.40;60.70;;;;;;1801535;77;21112;-80
2022/06/29 05:27:55;;;;;;;3.98;1.20;;;35.40;59.70;;;;;;1818214;77;21243;-82
2022/06/29 05:30:26;;;;;;;3.60;1.32;;;35.50;59.40;;;;;;1881524;75;21237;-82
2022/06/29 05:32:58;;;;;;;2.60;1.12;;;35.50;58.30;;;;;;1875532;74;21140;-83
2022/06/29 05:35:33;;;;;;;2.45;1.40;;;35.40;59.20;;;;;;1876009;74;21144;-82
2022/06/29 05:38:02;;;;;;;4.20;0.90;;;35.40;59.50;;;;;;1876901;74;21689;-82
2022/06/29 05:40:33;;;;;;;5.58;1.35;;;35.40;59.30;;;;;;1802962;78;21148;-81
2022/06/29 05:43:04;;;;;;;5.15;1.20;;;35.40;59.70;;;;;;1871227;74;21177;-82
2022/06/29 05:45:35;;;;;;;2.33;1.12;;;35.40;60.70;;;;;;1877512;74;21178;-81
2022/06/29 05:48:07;;;;;;;3.52;1.00;;;35.40;59.80;;;;;;1881871;74;21196;-83
2022/06/29 05:50:38;;;;;;;2.40;0.82;;;35.40;59.60;;;;;;1870879;74;21194;-83
2022/06/29 05:53:09;;;;;;;2.62;1.20;;;35.40;59.40;;;;;;1884441;75;21154;-82
2022/06/29 05:55:39;;;;;;;5.30;1.50;;;35.30;59.80;;;;;;1879647;75;21080;-81
2022/06/29 05:58:15;;;;;;;5.37;2.62;;;35.30;60.00;;;;;;1883799;74;21143;-83
2022/06/29 06:00:43;;;;;;;6.45;3.05;;;35.30;59.60;;;;;;1882562;74;21092;-81
2022/06/29 06:03:14;;;;;;;4.47;2.75;;;35.20;59.50;;;;;;1880435;75;21246;-83
2022/06/29 06:05:45;;;;;;;4.12;2.17;;;35.10;59.80;;;;;;1879530;75;21135;-81
2022/06/29 06:08:17;;;;;;;3.25;1.77;;;35.10;60.00;;;;;;1877538;74;21139;-83
2022/06/29 06:10:48;;;;;;;3.52;1.42;;;35.00;60.30;;;;;;1871723;74;21555;-83
2022/06/29 06:13:19;;;;;;;4.05;2.20;;;35.10;60.10;;;;;;1876301;74;21725;-81
2022/06/29 06:15:50;;;;;;;5.08;1.98;;;35.10;60.70;;;;;;1877640;75;21540;-83
2022/06/29 06:18:21;;;;;;;3.87;2.00;;;35.20;60.50;;;;;;1886315;74;21123;-82
2022/06/29 06:20:52;;;;;;;2.87;0.90;;;35.30;60.00;;;;;;1883200;75;21163;-82
2022/06/29 06:23:23;;;;;;;7.95;3.30;;;35.40;58.80;;;;;;1883153;74;21146;-81
2022/06/29 06:25:54;;;;;;;6.35;4.37;;;35.40;58.80;;;;;;1881171;74;21115;-81
2022/06/29 06:28:25;;;;;;;1.45;0.60;;;35.40;58.90;;;;;;1884808;74;21131;-82
2022/06/29 06:30:57;;;;;;;3.35;1.82;;;35.40;57.30;;;;;;1882977;74;21196;-81
2022/06/29 06:33:28;;;;;;;3.20;1.98;;;35.40;58.10;;;;;;1895692;74;21119;-82
2022/06/29 06:35:59;;;;;;;5.72;3.75;;;35.40;59.10;;;;;;1891285;74;21136;-83
2022/06/29 06:38:30;;;;;;;3.70;2.95;;;35.40;58.90;;;;;;1902977;74;21135;-82
2022/06/29 06:43:33;;;;;;;4.90;2.60;;;35.40;59.10;;;;;;1892189;74;21104;-82
2022/06/29 06:46:05;;;;;;;3.55;1.75;;;35.50;59.20;;;;;;1888846;74;21126;-80
2022/06/29 06:48:37;;;;;;;2.33;1.37;;;35.50;59.10;;;;;;1884653;74;21156;-82
2022/06/29 06:51:08;;;;;;;4.42;2.25;;;35.50;59.30;;;;;;1894252;74;21204;-83
2022/06/29 06:53:40;;;;;;;5.03;2.40;;;35.40;59.50;;;;;;1898539;74;21153;-83
2022/06/29 06:56:11;;;;;;;4.00;2.12;;;35.40;60.00;;;;;;1858402;76;21096;-83
2022/06/29 06:58:42;;;;;;;4.03;1.55;;;35.40;60.30;;;;;;1858178;76;21638;-84
2022/06/29 07:01:14;;;;;;;3.15;1.57;;;35.40;59.30;;;;;;1849919;76;21135;-83
2022/06/29 07:03:45;;;;;;;2.35;1.20;;;35.40;59.60;;;;;;1824817;77;21050;-83
2022/06/29 07:06:17;;;;;;;2.72;1.15;;;35.40;59.70;;;;;;1894025;74;21618;-84
2022/06/29 07:08:49;;;;;;;3.95;1.72;;;35.50;59.30;;;;;;1880134;75;21651;-83
2022/06/29 07:11:20;;;;;;;2.80;1.30;;;35.50;58.90;;;;;;1877417;76;21130;-83
2022/06/29 07:13:51;;;;;;;2.15;1.00;;;35.60;57.70;;;;;;1888597;74;21204;-83
2022/06/29 07:16:22;;;;;;;2.17;1.00;;;35.60;56.90;;;;;;1885836;74;21247;-82
2022/06/29 07:18:53;;;;;;;3.35;1.62;;;35.60;57.80;;;;;;1892745;74;21483;-82
2022/06/29 07:21:24;;;;;;;2.10;1.00;;;35.60;57.50;;;;;;1890126;75;21115;-84
2022/06/29 07:23:58;;;;;;;3.62;0.80;;;35.60;56.50;;;;;;1885723;75;21563;-85
2022/06/29 07:26:28;;;;;;;3.60;1.70;;;35.60;56.30;;;;;;1860120;76;21151;-82
2022/06/29 07:29:01;;;;;;;3.47;1.20;;;35.60;57.00;;;;;;1880497;75;21236;-81
2022/06/29 07:31:33;;;;;;;2.40;0.90;;;35.70;56.40;;;;;;1879525;75;21168;-83
2022/06/29 07:34:05;;;;;;;3.80;1.60;;;35.80;55.40;;;;;;1873779;73;21189;-85
2022/06/29 07:36:36;;;;;;;2.12;1.05;;;35.80;57.10;;;;;;1884389;74;21154;-82
2022/06/29 07:39:07;;;;;;;1.52;1.10;;;35.90;57.30;;;;;;1871641;74;21131;-82
2022/06/29 07:41:38;;;;;;;4.53;3.12;;;35.90;58.00;;;;;;1875296;73;21133;-83
2022/06/29 07:44:09;;;;;;;2.98;1.55;;;35.90;57.30;;;;;;1881646;73;21087;-82
2022/06/29 07:46:40;;;;;;;5.10;2.80;;;36.00;57.60;;;;;;1868568;73;21123;-81
2022/06/29 07:49:11;;;;;;;5.33;3.25;;;35.90;56.80;;;;;;1875076;73;21206;-79
2022/06/29 07:51:42;;;;;;;6.10;2.52;;;35.90;57.00;;;;;;1892436;73;21126;-82
2022/06/29 07:54:13;;;;;;;4.60;2.45;;;36.00;56.10;;;;;;1875901;75;21141;-82
2022/06/29 07:56:46;;;;;;;3.62;1.65;;;36.00;56.80;;;;;;1869931;75;21100;-83
2022/06/29 07:59:18;;;;;;;4.00;1.27;;;36.00;56.70;;;;;;1872868;75;21091;-82
2022/06/29 08:01:49;;;;;;;5.15;2.55;;;36.10;57.10;;;;;;1879761;75;21119;-81
2022/06/29 08:04:20;;;;;;;6.58;2.70;;;36.10;57.00;;;;;;1883473;75;21233;-83
2022/06/29 08:06:52;;;;;;;3.10;1.30;;;36.10;56.80;;;;;;1863122;75;21211;-82
2022/06/29 08:09:23;;;;;;;4.78;2.27;;;36.10;55.80;;;;;;1865059;75;21147;-84
2022/06/29 08:11:54;;;;;;;2.42;1.20;;;36.00;56.40;;;;;;1857970;76;21197;-83
2022/06/29 08:14:25;;;;;;;4.50;1.90;;;36.00;56.70;;;;;;1864467;75;21272;-85
2022/06/29 08:16:57;;;;;;;4.08;1.17;;;36.10;57.20;;;;;;1865910;75;21080;-84
2022/06/29 08:19:30;;;;;;;2.67;0.95;;;36.10;56.70;;;;;;1841705;77;21132;-82
2022/06/29 08:22:01;;;;;;;1.82;0.95;;;36.10;56.50;;;;;;1882270;75;21607;-83
2022/06/29 08:24:32;;;;;;;3.08;0.80;;;36.10;56.70;;;;;;1876417;75;21535;-82
2022/06/29 08:27:03;;;;;;;2.00;0.82;;;36.10;56.50;;;;;;1886116;75;21185;-81
2022/06/29 08:29:35;;;;;;;1.82;0.98;;;36.10;57.00;;;;;;1798565;78;21178;-83
2022/06/29 08:32:07;;;;;;;3.12;0.95;;;36.10;57.30;;;;;;1841366;76;21277;-84
2022/06/29 08:37:09;;;;;;;2.45;1.20;;;36.10;57.00;;;;;;1846915;77;21107;-83
2022/06/29 08:39:40;;;;;;;3.72;1.35;;;36.00;57.40;;;;;;1836073;77;21116;-81
2022/06/29 08:42:12;;;;;;;2.65;1.00;;;36.10;57.60;;;;;;1835852;77;21097;-81
2022/06/29 08:44:44;;;;;;;2.37;1.00;;;36.10;57.00;;;;;;1833874;77;21283;-82
2022/06/29 08:47:15;;;;;;;3.55;0.80;;;36.00;56.40;;;;;;1833345;77;21100;-82
2022/06/29 08:49:46;;;;;;;2.75;1.07;;;36.00;56.40;;;;;;1841957;77;21623;-80
2022/06/29 08:52:19;;;;;;;3.17;1.22;;;35.90;57.20;;;;;;1832947;77;21095;-82
2022/06/29 08:54:52;;;;;;;3.52;0.80;;;35.90;57.40;;;;;;1830196;77;21168;-80
2022/06/29 08:57:23;;;;;;;2.25;1.25;;;35.90;56.90;;;;;;1842862;77;21155;-81
2022/06/29 08:59:55;;;;;;;3.87;1.37;;;35.90;57.20;;;;;;1835557;77;21067;-81
2022/06/29 09:02:27;;;;;;;5.97;1.05;;;35.90;57.00;;;;;;1840010;77;21127;-81
2022/06/29 09:04:59;;;;;;;2.30;0.90;;;35.90;56.40;;;;;;1840400;77;21144;-82
2022/06/29 09:07:31;;;;;;;1.62;0.90;;;35.80;56.40;;;;;;1838327;77;21659;-81
2022/06/29 09:10:04;;;;;;;3.70;1.62;;;35.80;56.50;;;;;;1850885;77;21661;-81
2022/06/29 09:12:35;;;;;;;3.37;1.40;;;35.70;57.30;;;;;;1807167;78;21197;-81
2022/06/29 09:15:08;;;;;;;2.77;1.22;;;35.70;57.70;;;;;;1778233;80;21154;-82
2022/06/29 09:17:40;;;;;;;2.92;0.80;;;35.70;57.50;;;;;;1760244;81;21148;-82
2022/06/29 09:20:13;;;;;;;3.98;1.25;;;35.70;57.20;;;;;;1761215;81;21185;-81
2022/06/29 09:22:48;;;;;;;3.35;1.00;;;35.60;57.50;;;;;;1762783;80;21683;-81
2022/06/29 09:25:21;;;;;;;2.05;0.88;;;35.60;57.90;;;;;;1794945;79;21642;-81
2022/06/29 09:27:55;;;;;;;2.22;0.90;;;35.60;57.40;;;;;;1764525;81;21599;-81
2022/06/29 09:30:29;;;;;;;3.75;1.50;;;35.50;57.90;;;;;;1766406;80;21163;-81
2022/06/29 09:33:05;;;;;;;3.00;1.42;;;35.60;57.80;;;;;;1826515;77;21198;-81
2022/06/29 09:35:37;;;;;;;3.27;1.00;;;35.60;57.40;;;;;;1836257;77;21114;-82
2022/06/29 09:38:10;;;;;;;3.90;2.10;;;35.50;57.50;;;;;;1848233;77;21911;-82
2022/06/29 09:40:44;;;;;;;4.35;1.40;;;35.50;57.80;;;;;;1837615;76;21171;-81
2022/06/29 09:43:14;;;;;;;4.60;1.25;;;35.50;57.80;;;;;;1814980;78;21131;-82
2022/06/29 09:45:48;;;;;;;2.22;0.80;;;35.50;57.90;;;;;;1814696;78;21136;-81
2022/06/29 09:48:20;;;;;;;5.22;1.65;;;35.40;58.40;;;;;;1830904;78;21106;-83
2022/06/29 09:50:53;;;;;;;2.15;0.88;;;35.30;58.60;;;;;;1835624;78;21237;-81
2022/06/29 09:53:27;;;;;;;3.45;1.22;;;35.30;58.20;;;;;;1845903;77;21234;-80
2022/06/29 09:56:00;;;;;;;4.03;1.77;;;35.30;58.60;;;;;;1838535;77;21308;-81
2022/06/29 09:58:33;;;;;;;3.45;1.05;;;35.30;58.60;;;;;;1809541;77;21155;-83
2022/06/29 10:03:41;;;;;;;1.25;0.80;;;35.40;57.90;;;;;;1837463;78;21164;-81
2022/06/29 10:06:16;;;;;;;2.77;1.10;;;35.30;58.20;;;;;;1803876;79;21185;-80
2022/06/29 10:08:46;;;;;;;5.35;1.52;;;35.30;57.70;;;;;;1837672;78;21143;-81
2022/06/29 10:13:54;;;;;;;4.80;1.20;;;35.30;58.60;;;;;;1835647;78;21225;-82
2022/06/29 10:16:28;;;;;;;3.42;1.07;;;35.30;58.90;;;;;;1834234;77;21167;-83
2022/06/29 10:19:01;;;;;;;7.15;1.20;;;35.30;59.60;;;;;;1806557;79;21182;-83
2022/06/29 10:21:34;;;;;;;2.55;1.10;;;35.20;58.50;;;;;;1841573;77;21623;-81
2022/06/29 10:24:05;;;;;;;4.33;1.70;;;35.20;58.70;;;;;;1857887;76;21237;-82
2022/06/29 10:26:39;;;;;;;2.95;1.55;;;35.10;58.90;;;;;;1818279;77;21096;-82
2022/06/29 10:29:15;;;;;;;4.10;1.37;;;35.10;58.90;;;;;;1807162;77;21682;-82
2022/06/29 10:31:48;;;;;;;4.10;1.30;;;35.00;59.20;;;;;;1821432;77;21717;-83
2022/06/29 10:34:22;;;;;;;3.60;2.05;;;35.00;59.20;;;;;;1860378;75;21175;-83
2022/06/29 10:36:56;;;;;;;4.70;1.40;;;35.00;59.40;;;;;;1859009;77;21139;-83
2022/06/29 10:39:28;;;;;;;2.85;1.30;;;35.00;59.00;;;;;;1823704;78;21633;-84
2022/06/29 10:44:34;;;;;;;2.02;1.12;;;34.90;59.30;;;;;;1862026;76;21136;-82
2022/06/29 10:47:05;;;;;;;7.75;3.05;;;34.90;59.30;;;;;;1854066;75;21536;-80
2022/06/29 10:49:36;;;;;;;4.60;1.42;;;34.80;59.60;;;;;;1861067;75;21721;-82
2022/06/29 10:52:21;;;;;;;3.45;1.20;;;34.90;59.70;;;;;;1849745;75;21077;-82
2022/06/29 10:54:54;;;;;;;2.83;1.25;;;34.80;59.30;;;;;;1871120;76;21271;-83
2022/06/29 10:57:25;;;;;;;2.35;1.52;;;34.80;59.20;;;;;;1847155;77;22012;-82
2022/06/29 10:59:56;;;;;;;5.00;1.85;;;34.80;59.50;;;;;;1843700;77;21571;-82
2022/06/29 11:02:27;;;;;;;4.70;1.90;;;34.80;59.80;;;;;;1831300;77;21155;-82
2022/06/29 11:04:59;;;;;;;4.12;1.70;;;34.80;60.00;;;;;;1872945;76;21105;-84
2022/06/29 11:12:38;;;;;;;4.47;1.55;;;34.80;60.20;;;;;;1852676;77;21132;-82
2022/06/29 11:17:44;;;;;;;4.97;1.95;;;34.70;60.50;;;;;;1857170;77;21692;-82
2022/06/29 11:20:18;;;;;;;5.30;2.40;;;34.70;60.50;;;;;;1854067;77;21112;-83
2022/06/29 11:22:51;;;;;;;6.15;2.45;;;34.60;60.80;;;;;;1839676;77;21100;-83
2022/06/29 11:25:22;;;;;;;8.13;2.70;;;34.60;61.20;;;;;;1853092;76;21115;-81
2022/06/29 11:27:53;;;;;;;4.75;2.40;;;34.60;61.60;;;;;;1814969;79;21639;-82
2022/06/29 11:30:24;;;;;;;4.20;2.52;;;34.50;61.30;;;;;;1814722;79;21163;-82
2022/06/29 11:32:57;;;;;;;4.67;2.25;;;34.50;62.00;;;;;;1849370;76;21552;-83
2022/06/29 11:35:28;;;;;;;3.15;2.02;;;34.50;62.20;;;;;;1875983;76;21159;-83
2022/06/29 11:38:05;;;;;;;5.30;2.60;;;34.50;63.60;;;;;;1876054;76;21229;-82
2022/06/29 11:40:35;;;;;;;5.10;2.45;;;34.40;62.80;;;;;;1875844;76;21143;-82
2022/06/29 11:43:09;;;;;;;5.47;3.05;;;34.40;63.20;;;;;;1875656;76;21080;-82
2022/06/29 11:45:46;;;;;;;5.42;2.50;;;34.40;63.40;;;;;;1877831;76;21830;-82
2022/06/29 11:48:18;;;;;;;6.90;2.52;;;34.30;63.50;;;;;;1877758;76;21087;-82
2022/06/29 11:50:51;;;;;;;8.78;2.72;;;34.30;63.60;;;;;;1876073;76;21096;-84
2022/06/29 11:53:25;;;;;;;5.42;2.47;;;34.30;63.50;;;;;;1876108;76;21780;-82
2022/06/29 11:55:57;;;;;;;5.85;2.60;;;34.30;63.70;;;;;;1873036;76;21176;-83
2022/06/29 11:58:29;;;;;;;5.83;2.25;;;34.30;64.80;;;;;;1876173;76;21151;-82
2022/06/29 12:01:05;;;;;;;5.97;2.40;;;34.20;64.00;;;;;;1876004;76;21594;-83
2022/06/29 12:03:34;;;;;;;6.20;2.33;;;34.20;63.80;;;;;;1875547;76;21381;-82
2022/06/29 12:06:07;;;;;;;5.42;2.33;;;34.20;63.70;;;;;;1877838;75;21286;-83
2022/06/29 12:08:39;;;;;;;5.92;2.12;;;34.20;64.50;;;;;;1864472;76;21159;-82
2022/06/29 12:11:12;;;;;;;3.37;1.47;;;34.20;63.60;;;;;;1827832;77;21701;-82
2022/06/29 12:13:44;;;;;;;5.83;2.17;;;34.20;63.40;;;;;;1882412;75;21147;-82
2022/06/29 12:16:23;;;;;;;3.98;2.27;;;34.10;63.40;;;;;;1839158;77;21642;-83
2022/06/29 12:18:54;;;;;;;5.60;2.98;;;34.10;63.80;;;;;;1887538;75;21209;-84
2022/06/29 12:21:28;;;;;;;9.80;4.20;;;34.10;64.10;;;;;;1865509;76;21159;-81
2022/06/29 12:24:01;;;;;;;8.65;4.45;;;34.10;64.70;;;;;;1879999;75;21115;-81
2022/06/29 12:26:36;;;;;;;11.65;4.62;;;34.10;65.20;;;;;;1879888;75;21607;-82
2022/06/29 12:29:07;;;;;;;10.05;4.03;;;34.00;65.20;;;;;;1871632;75;21253;-83
2022/06/29 12:31:40;;;;;;;9.38;4.58;;;34.00;65.50;;;;;;1851941;76;21131;-80
2022/06/29 12:34:13;;;;;;;7.60;4.08;;;34.00;65.80;;;;;;1889334;75;21109;-81
2022/06/29 12:36:46;;;;;;;10.30;3.87;;;33.90;66.10;;;;;;1897541;74;21538;-83
2022/06/29 12:39:19;;;;;;;6.90;3.92;;;33.90;66.50;;;;;;1887126;74;21087;-83
2022/06/29 12:41:49;;;;;;;7.45;3.35;;;33.80;66.80;;;;;;1892113;76;21174;-83
2022/06/29 12:44:24;;;;;;;6.70;3.35;;;33.70;66.80;;;;;;1887867;76;21076;-82
2022/06/29 12:46:56;;;;;;;5.80;3.33;;;33.70;67.30;;;;;;1891551;74;21070;-82
2022/06/29 12:49:31;;;;;;;6.42;3.60;;;33.60;67.60;;;;;;1898489;74;21146;-83
2022/06/29 12:52:02;;;;;;;5.28;3.12;;;33.60;67.80;;;;;;1889301;74;22337;-83
2022/06/29 12:54:33;;;;;;;8.30;3.40;;;33.50;68.00;;;;;;1883627;74;21099;-83
2022/06/29 12:57:05;;;;;;;7.95;3.35;;;33.50;68.30;;;;;;1896355;74;21661;-82
2022/06/29 12:59:37;;;;;;;8.55;3.30;;;33.40;68.30;;;;;;1880038;74;21590;-82
2022/06/29 13:02:10;;;;;;;5.25;2.98;;;33.40;68.50;;;;;;1899297;74;21079;-82
2022/06/29 13:04:44;;;;;;;9.30;2.95;;;33.40;68.90;;;;;;1900535;74;21230;-83
2022/06/29 13:07:17;;;;;;;3.72;2.50;;;33.40;68.80;;;;;;1888677;74;21202;-82
2022/06/29 13:09:48;;;;;;;6.85;2.72;;;33.40;69.10;;;;;;1888670;76;21135;-81
2022/06/29 13:12:21;;;;;;;6.78;2.60;;;33.40;69.40;;;;;;1881790;76;21172;-82
2022/06/29 13:14:57;;;;;;;4.65;2.75;;;33.30;69.60;;;;;;1888875;76;21056;-83
2022/06/29 13:17:37;;;;;;;5.43;2.90;;;33.30;69.70;;;;;;1808315;78;21175;-82
2022/06/29 13:20:09;;;;;;;8.05;3.37;;;33.30;70.50;;;;;;1880179;76;21167;-82
2022/06/29 13:22:47;;;;;;;5.58;3.10;;;33.30;70.60;;;;;;1817712;78;21117;-82
2022/06/29 13:25:39;;;;;;;6.83;3.00;;;33.20;70.30;;;;;;1844621;76;21083;-81
2022/06/29 13:28:23;;;;;;;7.37;3.30;;;33.20;70.70;;;;;;1850931;75;21198;-82
2022/06/29 13:30:55;;;;;;;7.83;3.22;;;33.20;70.80;;;;;;1874842;76;21135;-84
2022/06/29 13:33:42;;;;;;;;;;;33.20;71.40;;;;;;1879997;76;21188;-82
2022/06/29 13:36:16;;;;;;;7.08;2.75;;;33.20;70.70;;;;;;1874177;75;20212;-83
2022/06/29 13:38:54;;;;;;;4.67;3.00;;;33.10;71.00;;;;;;1826284;75;21125;-83